sensor_id;sensor_type;location;lat;lon;timestamp;pressure;altitude;pressure_sealevel;temperature;humidity
43770;BME280;6597;52.218;9.882;2023-05-29T00:00:47;101331.88;;;14.13;86.68
43770;BME280;6597;52.218;9.882;2023-05-29T00:03:15;101330.22;;;14.10;86.77
43770;BME280;6597;52.218;9.882;2023-05-29T00:05:42;101333.59;;;14.14;86.37
43770;BME280;6597;52.218;9.882;2023-05-29T00:08:09;101329.59;;;14.04;87.26
43770;BME280;6597;52.218;9.882;2023-05-29T00:10:36;101336.72;;;14.01;87.57
43770;BME280;6597;52.218;9.882;2023-05-29T00:13:02;101346.56;;;13.96;87.99
43770;BME280;6597;52.218;9.882;2023-05-29T00:15:29;101333.56;;;13.92;88.05
43770;BME280;6597;52.218;9.882;2023-05-29T00:17:56;101339.84;;;13.89;87.38
43770;BME280;6597;52.218;9.882;2023-05-29T00:20:23;101338.00;;;13.91;87.14
43770;BME280;6597;52.218;9.882;2023-05-29T00:22:50;101332.91;;;13.87;87.53
43770;BME280;6597;52.218;9.882;2023-05-29T00:25:18;101333.03;;;13.84;87.38
43770;BME280;6597;52.218;9.882;2023-05-29T00:27:44;101340.75;;;13.66;89.08
43770;BME280;6597;52.218;9.882;2023-05-29T00:30:11;101346.28;;;13.59;87.91
43770;BME280;6597;52.218;9.882;2023-05-29T00:32:38;101351.88;;;13.51;89.50
43770;BME280;6597;52.218;9.882;2023-05-29T00:35:05;101353.75;;;13.48;89.14
43770;BME280;6597;52.218;9.882;2023-05-29T00:37:33;101352.97;;;13.46;89.30
43770;BME280;6597;52.218;9.882;2023-05-29T00:40:00;101351.34;;;13.42;89.87
43770;BME280;6597;52.218;9.882;2023-05-29T00:42:26;101361.16;;;13.38;89.44
43770;BME280;6597;52.218;9.882;2023-05-29T00:44:53;101358.84;;;13.29;89.77
43770;BME280;6597;52.218;9.882;2023-05-29T00:47:20;101366.13;;;13.22;89.82
43770;BME280;6597;52.218;9.882;2023-05-29T00:49:47;101365.63;;;13.11;90.65
43770;BME280;6597;52.218;9.882;2023-05-29T00:52:17;101369.81;;;13.17;90.67
43770;BME280;6597;52.218;9.882;2023-05-29T00:54:46;101369.19;;;13.10;90.02
43770;BME280;6597;52.218;9.882;2023-05-29T00:57:14;101376.34;;;13.06;90.38
43770;BME280;6597;52.218;9.882;2023-05-29T00:59:44;101374.00;;;12.97;90.86
43770;BME280;6597;52.218;9.882;2023-05-29T01:02:11;101372.41;;;12.93;91.48
43770;BME280;6597;52.218;9.882;2023-05-29T01:04:38;101374.16;;;12.93;91.93
43770;BME280;6597;52.218;9.882;2023-05-29T01:07:05;101372.44;;;12.92;91.17
43770;BME280;6597;52.218;9.882;2023-05-29T01:09:32;101376.09;;;12.88;91.75
43770;BME280;6597;52.218;9.882;2023-05-29T01:12:13;101378.25;;;12.76;91.59
43770;BME280;6597;52.218;9.882;2023-05-29T01:14:51;101374.16;;;12.68;92.41
43770;BME280;6597;52.218;9.882;2023-05-29T01:17:28;101377.75;;;12.65;91.99
43770;BME280;6597;52.218;9.882;2023-05-29T01:20:08;101377.84;;;12.62;91.76
43770;BME280;6597;52.218;9.882;2023-05-29T01:23:03;101372.91;;;12.53;91.97
43770;BME280;6597;52.218;9.882;2023-05-29T01:25:46;101372.31;;;12.45;92.26
43770;BME280;6597;52.218;9.882;2023-05-29T01:28:21;101371.66;;;12.38;92.13
43770;BME280;6597;52.218;9.882;2023-05-29T01:30:53;101378.59;;;12.41;92.41
43770;BME280;6597;52.218;9.882;2023-05-29T01:33:20;101379.50;;;12.40;92.17
43770;BME280;6597;52.218;9.882;2023-05-29T01:35:50;101384.22;;;12.29;92.34
43770;BME280;6597;52.218;9.882;2023-05-29T01:38:16;101389.69;;;12.23;92.69
43770;BME280;6597;52.218;9.882;2023-05-29T01:40:43;101378.44;;;12.18;92.60
43770;BME280;6597;52.218;9.882;2023-05-29T01:43:10;101388.06;;;12.19;92.45
43770;BME280;6597;52.218;9.882;2023-05-29T01:45:39;101385.44;;;12.19;92.25
43770;BME280;6597;52.218;9.882;2023-05-29T01:48:06;101392.47;;;12.18;92.27
43770;BME280;6597;52.218;9.882;2023-05-29T01:50:34;101401.28;;;12.17;91.63
43770;BME280;6597;52.218;9.882;2023-05-29T01:53:01;101396.94;;;12.16;91.53
43770;BME280;6597;52.218;9.882;2023-05-29T01:55:28;101399.41;;;12.21;91.28
43770;BME280;6597;52.218;9.882;2023-05-29T01:57:55;101399.66;;;12.13;91.27
43770;BME280;6597;52.218;9.882;2023-05-29T02:00:22;101404.97;;;12.11;90.91
43770;BME280;6597;52.218;9.882;2023-05-29T02:02:50;101398.19;;;12.04;90.34
43770;BME280;6597;52.218;9.882;2023-05-29T02:05:17;101406.22;;;11.98;90.98
43770;BME280;6597;52.218;9.882;2023-05-29T02:07:43;101408.78;;;12.01;90.84
43770;BME280;6597;52.218;9.882;2023-05-29T02:10:11;101404.47;;;11.99;90.91
43770;BME280;6597;52.218;9.882;2023-05-29T02:12:37;101402.13;;;11.90;90.21
43770;BME280;6597;52.218;9.882;2023-05-29T02:15:05;101406.53;;;11.89;90.72
43770;BME280;6597;52.218;9.882;2023-05-29T02:17:32;101404.13;;;11.81;90.37
43770;BME280;6597;52.218;9.882;2023-05-29T02:20:01;101405.00;;;11.82;90.51
43770;BME280;6597;52.218;9.882;2023-05-29T02:22:28;101410.28;;;11.80;90.13
43770;BME280;6597;52.218;9.882;2023-05-29T02:24:54;101412.06;;;11.80;89.43
43770;BME280;6597;52.218;9.882;2023-05-29T02:27:21;101420.78;;;11.82;89.64
43770;BME280;6597;52.218;9.882;2023-05-29T02:29:48;101415.72;;;11.74;89.41
43770;BME280;6597;52.218;9.882;2023-05-29T02:32:14;101425.72;;;11.62;89.86
43770;BME280;6597;52.218;9.882;2023-05-29T02:34:41;101427.44;;;11.63;90.00
43770;BME280;6597;52.218;9.882;2023-05-29T02:37:09;101419.50;;;11.64;89.80
43770;BME280;6597;52.218;9.882;2023-05-29T02:39:35;101416.88;;;11.64;89.72
43770;BME280;6597;52.218;9.882;2023-05-29T02:42:02;101430.78;;;11.68;89.91
43770;BME280;6597;52.218;9.882;2023-05-29T02:44:28;101424.88;;;11.60;89.46
43770;BME280;6597;52.218;9.882;2023-05-29T02:46:55;101432.22;;;11.48;89.50
43770;BME280;6597;52.218;9.882;2023-05-29T02:49:21;101433.19;;;11.46;90.02
43770;BME280;6597;52.218;9.882;2023-05-29T02:51:48;101445.34;;;11.50;89.42
43770;BME280;6597;52.218;9.882;2023-05-29T02:54:16;101451.53;;;11.47;89.80
43770;BME280;6597;52.218;9.882;2023-05-29T02:56:42;101444.44;;;11.51;89.33
43770;BME280;6597;52.218;9.882;2023-05-29T02:59:10;101450.63;;;11.48;89.47
43770;BME280;6597;52.218;9.882;2023-05-29T03:01:36;101449.91;;;11.43;89.13
43770;BME280;6597;52.218;9.882;2023-05-29T03:04:03;101444.00;;;11.34;89.50
43770;BME280;6597;52.218;9.882;2023-05-29T03:06:30;101443.50;;;11.21;89.73
43770;BME280;6597;52.218;9.882;2023-05-29T03:08:58;101449.75;;;11.17;90.10
43770;BME280;6597;52.218;9.882;2023-05-29T03:11:27;101444.59;;;11.12;90.50
43770;BME280;6597;52.218;9.882;2023-05-29T03:13:54;101448.19;;;11.10;90.38
43770;BME280;6597;52.218;9.882;2023-05-29T03:16:20;101441.13;;;11.12;90.56
43770;BME280;6597;52.218;9.882;2023-05-29T03:18:47;101445.50;;;11.11;90.57
43770;BME280;6597;52.218;9.882;2023-05-29T03:21:17;101443.06;;;11.04;90.31
43770;BME280;6597;52.218;9.882;2023-05-29T03:23:44;101453.66;;;11.01;90.72
43770;BME280;6597;52.218;9.882;2023-05-29T03:26:12;101446.50;;;11.07;90.25
43770;BME280;6597;52.218;9.882;2023-05-29T03:28:41;101457.03;;;11.06;90.61
43770;BME280;6597;52.218;9.882;2023-05-29T03:31:09;101446.50;;;11.07;90.27
43770;BME280;6597;52.218;9.882;2023-05-29T03:33:42;101447.44;;;11.03;90.12
43770;BME280;6597;52.218;9.882;2023-05-29T03:36:14;101451.81;;;11.04;89.86
43770;BME280;6597;52.218;9.882;2023-05-29T03:38:42;101458.97;;;10.98;90.69
43770;BME280;6597;52.218;9.882;2023-05-29T03:41:09;101452.09;;;10.94;90.93
43770;BME280;6597;52.218;9.882;2023-05-29T03:43:37;101451.22;;;10.93;91.13
43770;BME280;6597;52.218;9.882;2023-05-29T03:46:05;101453.81;;;10.95;91.12
43770;BME280;6597;52.218;9.882;2023-05-29T03:48:34;101461.72;;;10.93;91.03
43770;BME280;6597;52.218;9.882;2023-05-29T03:51:00;101462.59;;;10.94;91.44
43770;BME280;6597;52.218;9.882;2023-05-29T03:53:34;101476.63;;;10.93;91.42
43770;BME280;6597;52.218;9.882;2023-05-29T03:56:00;101470.47;;;10.94;91.43
43770;BME280;6597;52.218;9.882;2023-05-29T03:58:28;101466.88;;;10.98;91.24
43770;BME280;6597;52.218;9.882;2023-05-29T04:00:55;101467.94;;;10.90;90.73
43770;BME280;6597;52.218;9.882;2023-05-29T04:03:24;101484.66;;;10.86;91.08
43770;BME280;6597;52.218;9.882;2023-05-29T04:05:51;101480.34;;;10.84;91.55
43770;BME280;6597;52.218;9.882;2023-05-29T04:08:18;101480.47;;;10.79;91.95
43770;BME280;6597;52.218;9.882;2023-05-29T04:10:45;101477.84;;;10.79;92.39
43770;BME280;6597;52.218;9.882;2023-05-29T04:13:12;101478.63;;;10.83;92.43
43770;BME280;6597;52.218;9.882;2023-05-29T04:15:38;101475.09;;;10.84;92.37
43770;BME280;6597;52.218;9.882;2023-05-29T04:18:05;101476.81;;;10.85;91.98
43770;BME280;6597;52.218;9.882;2023-05-29T04:20:34;101487.38;;;10.83;92.26
43770;BME280;6597;52.218;9.882;2023-05-29T04:23:01;101482.91;;;10.87;92.67
43770;BME280;6597;52.218;9.882;2023-05-29T04:25:28;101480.31;;;10.85;92.41
43770;BME280;6597;52.218;9.882;2023-05-29T04:27:55;101483.69;;;10.90;93.22
43770;BME280;6597;52.218;9.882;2023-05-29T04:30:22;101477.53;;;10.91;93.10
43770;BME280;6597;52.218;9.882;2023-05-29T04:32:48;101474.00;;;10.93;93.12
43770;BME280;6597;52.218;9.882;2023-05-29T04:35:17;101479.97;;;10.99;92.97
43770;BME280;6597;52.218;9.882;2023-05-29T04:37:53;101481.69;;;11.00;92.90
43770;BME280;6597;52.218;9.882;2023-05-29T04:40:21;101493.91;;;11.01;93.02
43770;BME280;6597;52.218;9.882;2023-05-29T04:42:49;101487.81;;;11.01;92.77
43770;BME280;6597;52.218;9.882;2023-05-29T04:45:16;101490.38;;;11.02;92.59
43770;BME280;6597;52.218;9.882;2023-05-29T04:47:45;101487.69;;;11.05;92.94
43770;BME280;6597;52.218;9.882;2023-05-29T04:50:12;101499.81;;;11.11;93.01
43770;BME280;6597;52.218;9.882;2023-05-29T04:52:40;101495.34;;;11.14;92.71
43770;BME280;6597;52.218;9.882;2023-05-29T04:55:10;101495.22;;;11.19;93.10
43770;BME280;6597;52.218;9.882;2023-05-29T04:57:37;101493.34;;;11.24;93.36
43770;BME280;6597;52.218;9.882;2023-05-29T05:00:08;101494.84;;;11.33;93.50
43770;BME280;6597;52.218;9.882;2023-05-29T05:02:41;101496.38;;;11.43;92.59
43770;BME280;6597;52.218;9.882;2023-05-29T05:05:08;101497.88;;;11.51;91.35
43770;BME280;6597;52.218;9.882;2023-05-29T05:07:35;101504.72;;;11.57;91.67
43770;BME280;6597;52.218;9.882;2023-05-29T05:10:02;101493.09;;;11.66;90.88
43770;BME280;6597;52.218;9.882;2023-05-29T05:12:31;101503.47;;;11.72;90.87
43770;BME280;6597;52.218;9.882;2023-05-29T05:15:00;101497.97;;;11.81;91.01
43770;BME280;6597;52.218;9.882;2023-05-29T05:17:27;101496.84;;;11.90;88.88
43770;BME280;6597;52.218;9.882;2023-05-29T05:19:54;101495.88;;;11.92;88.89
43770;BME280;6597;52.218;9.882;2023-05-29T05:22:21;101507.19;;;11.96;87.91
43770;BME280;6597;52.218;9.882;2023-05-29T05:24:49;101501.72;;;12.02;87.92
43770;BME280;6597;52.218;9.882;2023-05-29T05:27:17;101498.00;;;12.10;87.64
43770;BME280;6597;52.218;9.882;2023-05-29T05:29:45;101498.63;;;12.19;86.39
43770;BME280;6597;52.218;9.882;2023-05-29T05:32:11;101495.88;;;12.22;85.90
43770;BME280;6597;52.218;9.882;2023-05-29T05:34:38;101498.25;;;12.31;85.59
43770;BME280;6597;52.218;9.882;2023-05-29T05:37:06;101496.63;;;12.27;84.54
43770;BME280;6597;52.218;9.882;2023-05-29T05:39:33;101488.56;;;12.31;85.57
43770;BME280;6597;52.218;9.882;2023-05-29T05:42:00;101490.09;;;12.40;84.88
43770;BME280;6597;52.218;9.882;2023-05-29T05:44:57;101492.31;;;12.52;84.91
43770;BME280;6597;52.218;9.882;2023-05-29T05:47:24;101490.59;;;12.51;81.59
43770;BME280;6597;52.218;9.882;2023-05-29T05:49:52;101494.03;;;12.53;83.11
43770;BME280;6597;52.218;9.882;2023-05-29T05:52:19;101495.47;;;12.63;81.34
43770;BME280;6597;52.218;9.882;2023-05-29T05:54:46;101496.22;;;12.67;79.02
43770;BME280;6597;52.218;9.882;2023-05-29T05:57:13;101496.91;;;12.73;79.29
43770;BME280;6597;52.218;9.882;2023-05-29T05:59:40;101499.66;;;12.70;78.84
43770;BME280;6597;52.218;9.882;2023-05-29T06:02:08;101504.13;;;12.67;78.34
43770;BME280;6597;52.218;9.882;2023-05-29T06:04:35;101511.75;;;12.76;78.47
43770;BME280;6597;52.218;9.882;2023-05-29T06:07:02;101511.81;;;12.74;78.36
43770;BME280;6597;52.218;9.882;2023-05-29T06:09:29;101513.28;;;12.83;77.48
43770;BME280;6597;52.218;9.882;2023-05-29T06:11:55;101512.78;;;12.98;77.44
43770;BME280;6597;52.218;9.882;2023-05-29T06:14:23;101511.31;;;13.16;76.77
43770;BME280;6597;52.218;9.882;2023-05-29T06:16:50;101513.59;;;13.27;75.12
43770;BME280;6597;52.218;9.882;2023-05-29T06:19:18;101522.16;;;13.35;75.04
43770;BME280;6597;52.218;9.882;2023-05-29T06:21:56;101520.69;;;13.51;75.37
43770;BME280;6597;52.218;9.882;2023-05-29T06:24:22;101520.97;;;13.68;74.59
43770;BME280;6597;52.218;9.882;2023-05-29T06:26:49;101526.19;;;13.70;73.63
43770;BME280;6597;52.218;9.882;2023-05-29T06:29:16;101524.53;;;13.91;73.08
43770;BME280;6597;52.218;9.882;2023-05-29T06:31:43;101516.84;;;14.08;72.86
43770;BME280;6597;52.218;9.882;2023-05-29T06:34:10;101523.84;;;14.09;72.09
43770;BME280;6597;52.218;9.882;2023-05-29T06:36:38;101521.09;;;14.12;72.81
43770;BME280;6597;52.218;9.882;2023-05-29T06:39:07;101518.03;;;14.23;72.55
43770;BME280;6597;52.218;9.882;2023-05-29T06:41:33;101522.03;;;14.35;70.97
43770;BME280;6597;52.218;9.882;2023-05-29T06:44:00;101518.28;;;14.40;70.42
43770;BME280;6597;52.218;9.882;2023-05-29T06:46:26;101514.97;;;14.35;69.72
43770;BME280;6597;52.218;9.882;2023-05-29T06:48:53;101522.81;;;14.37;71.43
43770;BME280;6597;52.218;9.882;2023-05-29T06:51:22;101527.84;;;14.44;71.69
43770;BME280;6597;52.218;9.882;2023-05-29T06:53:55;101516.78;;;14.78;70.73
43770;BME280;6597;52.218;9.882;2023-05-29T06:56:23;101519.16;;;15.06;68.48
43770;BME280;6597;52.218;9.882;2023-05-29T06:58:51;101533.47;;;15.22;66.33
43770;BME280;6597;52.218;9.882;2023-05-29T07:01:19;101541.25;;;15.25;65.64
43770;BME280;6597;52.218;9.882;2023-05-29T07:03:54;101545.09;;;15.18;66.98
43770;BME280;6597;52.218;9.882;2023-05-29T07:06:21;101544.69;;;15.27;65.84
43770;BME280;6597;52.218;9.882;2023-05-29T07:08:48;101554.66;;;15.01;67.51
43770;BME280;6597;52.218;9.882;2023-05-29T07:11:16;101552.75;;;14.82;67.66
43770;BME280;6597;52.218;9.882;2023-05-29T07:13:42;101555.44;;;14.81;68.03
43770;BME280;6597;52.218;9.882;2023-05-29T07:16:09;101558.81;;;14.84;68.00
43770;BME280;6597;52.218;9.882;2023-05-29T07:18:36;101557.78;;;14.88;69.04
43770;BME280;6597;52.218;9.882;2023-05-29T07:21:02;101561.41;;;14.86;69.91
43770;BME280;6597;52.218;9.882;2023-05-29T07:23:30;101555.25;;;15.07;68.68
43770;BME280;6597;52.218;9.882;2023-05-29T07:25:57;101553.28;;;15.12;68.35
43770;BME280;6597;52.218;9.882;2023-05-29T07:28:28;101555.19;;;15.31;67.49
43770;BME280;6597;52.218;9.882;2023-05-29T07:30:55;101554.91;;;15.57;66.75
43770;BME280;6597;52.218;9.882;2023-05-29T07:33:22;101557.25;;;15.85;65.67
43770;BME280;6597;52.218;9.882;2023-05-29T07:35:51;101566.09;;;16.04;64.76
43770;BME280;6597;52.218;9.882;2023-05-29T07:38:17;101564.47;;;16.21;63.88
43770;BME280;6597;52.218;9.882;2023-05-29T07:40:44;101560.75;;;16.25;63.04
43770;BME280;6597;52.218;9.882;2023-05-29T07:43:31;101564.31;;;16.05;63.32
43770;BME280;6597;52.218;9.882;2023-05-29T07:46:01;101568.97;;;16.18;63.78
43770;BME280;6597;52.218;9.882;2023-05-29T07:48:28;101571.16;;;16.48;63.92
43770;BME280;6597;52.218;9.882;2023-05-29T07:50:56;101561.47;;;16.47;62.02
43770;BME280;6597;52.218;9.882;2023-05-29T07:53:25;101558.63;;;16.33;62.93
43770;BME280;6597;52.218;9.882;2023-05-29T07:55:51;101559.53;;;16.50;61.75
43770;BME280;6597;52.218;9.882;2023-05-29T07:58:18;101553.75;;;16.80;61.12
43770;BME280;6597;52.218;9.882;2023-05-29T08:00:47;101557.75;;;16.89;60.27
43770;BME280;6597;52.218;9.882;2023-05-29T08:03:14;101563.72;;;16.94;60.24
43770;BME280;6597;52.218;9.882;2023-05-29T08:05:59;101562.72;;;17.14;59.44
43770;BME280;6597;52.218;9.882;2023-05-29T08:08:27;101566.84;;;17.19;59.22
43770;BME280;6597;52.218;9.882;2023-05-29T08:10:54;101554.78;;;17.48;58.71
43770;BME280;6597;52.218;9.882;2023-05-29T08:13:21;101556.22;;;17.72;56.71
43770;BME280;6597;52.218;9.882;2023-05-29T08:15:49;101544.56;;;17.58;57.06
43770;BME280;6597;52.218;9.882;2023-05-29T08:18:15;101549.38;;;17.50;56.83
43770;BME280;6597;52.218;9.882;2023-05-29T08:20:42;101558.28;;;17.31;56.76
43770;BME280;6597;52.218;9.882;2023-05-29T08:23:10;101556.03;;;17.41;56.16
43770;BME280;6597;52.218;9.882;2023-05-29T08:25:36;101555.44;;;17.70;55.34
43770;BME280;6597;52.218;9.882;2023-05-29T08:28:03;101555.63;;;17.83;54.62
43770;BME280;6597;52.218;9.882;2023-05-29T08:30:29;101555.34;;;17.89;54.01
43770;BME280;6597;52.218;9.882;2023-05-29T08:32:57;101549.28;;;17.86;53.90
43770;BME280;6597;52.218;9.882;2023-05-29T08:35:24;101562.19;;;17.93;52.75
43770;BME280;6597;52.218;9.882;2023-05-29T08:37:51;101552.13;;;17.83;54.43
43770;BME280;6597;52.218;9.882;2023-05-29T08:40:17;101558.94;;;17.71;54.78
43770;BME280;6597;52.218;9.882;2023-05-29T08:42:46;101559.84;;;17.87;55.45
43770;BME280;6597;52.218;9.882;2023-05-29T08:45:14;101559.63;;;18.41;55.33
43770;BME280;6597;52.218;9.882;2023-05-29T08:47:41;101553.88;;;18.48;52.49
43770;BME280;6597;52.218;9.882;2023-05-29T08:50:09;101557.59;;;18.61;53.86
43770;BME280;6597;52.218;9.882;2023-05-29T08:52:37;101563.09;;;18.74;52.45
43770;BME280;6597;52.218;9.882;2023-05-29T08:55:06;101558.41;;;18.63;51.76
43770;BME280;6597;52.218;9.882;2023-05-29T08:57:32;101558.38;;;18.79;52.40
43770;BME280;6597;52.218;9.882;2023-05-29T09:00:01;101547.56;;;18.98;52.42
43770;BME280;6597;52.218;9.882;2023-05-29T09:02:33;101564.13;;;18.87;50.49
43770;BME280;6597;52.218;9.882;2023-05-29T09:05:01;101567.72;;;19.02;50.63
43770;BME280;6597;52.218;9.882;2023-05-29T09:07:29;101560.31;;;19.07;50.64
43770;BME280;6597;52.218;9.882;2023-05-29T09:09:56;101564.78;;;19.07;52.00
43770;BME280;6597;52.218;9.882;2023-05-29T09:12:24;101564.72;;;18.92;50.51
43770;BME280;6597;52.218;9.882;2023-05-29T09:14:51;101576.06;;;18.96;51.20
43770;BME280;6597;52.218;9.882;2023-05-29T09:17:19;101564.06;;;18.89;51.22
43770;BME280;6597;52.218;9.882;2023-05-29T09:19:47;101571.94;;;18.75;50.63
43770;BME280;6597;52.218;9.882;2023-05-29T09:22:14;101568.19;;;18.46;50.99
43770;BME280;6597;52.218;9.882;2023-05-29T09:24:46;101561.28;;;18.59;52.04
43770;BME280;6597;52.218;9.882;2023-05-29T09:27:17;101567.22;;;18.80;50.57
43770;BME280;6597;52.218;9.882;2023-05-29T09:29:45;101560.53;;;18.73;50.63
43770;BME280;6597;52.218;9.882;2023-05-29T09:32:13;101577.16;;;18.76;51.12
43770;BME280;6597;52.218;9.882;2023-05-29T09:34:41;101575.03;;;18.99;51.04
43770;BME280;6597;52.218;9.882;2023-05-29T09:37:09;101573.75;;;18.74;50.13
43770;BME280;6597;52.218;9.882;2023-05-29T09:39:47;101588.94;;;18.72;51.23
43770;BME280;6597;52.218;9.882;2023-05-29T09:42:14;101579.06;;;18.74;51.14
43770;BME280;6597;52.218;9.882;2023-05-29T09:44:44;101578.81;;;18.94;51.68
43770;BME280;6597;52.218;9.882;2023-05-29T09:47:14;101576.47;;;19.04;49.43
43770;BME280;6597;52.218;9.882;2023-05-29T09:49:42;101582.97;;;19.14;49.24
43770;BME280;6597;52.218;9.882;2023-05-29T09:52:11;101580.06;;;19.19;49.23
43770;BME280;6597;52.218;9.882;2023-05-29T09:54:41;101578.50;;;19.15;49.28
43770;BME280;6597;52.218;9.882;2023-05-29T09:57:12;101571.81;;;19.08;48.75
43770;BME280;6597;52.218;9.882;2023-05-29T09:59:41;101557.75;;;19.36;49.79
43770;BME280;6597;52.218;9.882;2023-05-29T10:02:09;101553.88;;;19.71;48.04
43770;BME280;6597;52.218;9.882;2023-05-29T10:04:37;101551.91;;;20.03;47.70
43770;BME280;6597;52.218;9.882;2023-05-29T10:07:08;101558.38;;;19.99;47.32
43770;BME280;6597;52.218;9.882;2023-05-29T10:09:38;101561.44;;;20.22;51.17
43770;BME280;6597;52.218;9.882;2023-05-29T10:12:08;101558.78;;;20.50;45.95
43770;BME280;6597;52.218;9.882;2023-05-29T10:14:39;101559.34;;;20.27;45.14
43770;BME280;6597;52.218;9.882;2023-05-29T10:17:09;101568.88;;;20.16;45.49
43770;BME280;6597;52.218;9.882;2023-05-29T10:19:38;101565.91;;;20.07;46.11
43770;BME280;6597;52.218;9.882;2023-05-29T10:22:06;101557.53;;;20.27;47.41
43770;BME280;6597;52.218;9.882;2023-05-29T10:24:34;101548.88;;;20.79;46.52
43770;BME280;6597;52.218;9.882;2023-05-29T10:27:04;101555.53;;;20.86;44.36
43770;BME280;6597;52.218;9.882;2023-05-29T10:29:35;101559.59;;;20.65;44.42
43770;BME280;6597;52.218;9.882;2023-05-29T10:32:16;101553.31;;;20.93;45.85
43770;BME280;6597;52.218;9.882;2023-05-29T10:34:52;101551.00;;;21.28;43.45
43770;BME280;6597;52.218;9.882;2023-05-29T10:37:31;101544.50;;;21.32;43.59
43770;BME280;6597;52.218;9.882;2023-05-29T10:40:04;101545.72;;;21.53;44.70
43770;BME280;6597;52.218;9.882;2023-05-29T10:42:42;101541.41;;;21.25;43.50
43770;BME280;6597;52.218;9.882;2023-05-29T10:45:09;101538.69;;;20.86;42.26
43770;BME280;6597;52.218;9.882;2023-05-29T10:47:38;101534.94;;;20.47;42.97
43770;BME280;6597;52.218;9.882;2023-05-29T10:50:05;101535.81;;;20.33;43.86
43770;BME280;6597;52.218;9.882;2023-05-29T10:52:32;101537.06;;;20.42;43.85
43770;BME280;6597;52.218;9.882;2023-05-29T10:54:58;101531.88;;;20.67;43.92
43770;BME280;6597;52.218;9.882;2023-05-29T10:57:29;101530.47;;;21.16;43.47
43770;BME280;6597;52.218;9.882;2023-05-29T11:00:05;101533.50;;;21.09;42.46
43770;BME280;6597;52.218;9.882;2023-05-29T11:02:40;101522.72;;;21.11;43.23
43770;BME280;6597;52.218;9.882;2023-05-29T11:05:18;101533.28;;;21.00;42.36
43770;BME280;6597;52.218;9.882;2023-05-29T11:07:53;101530.66;;;20.59;43.49
43770;BME280;6597;52.218;9.882;2023-05-29T11:10:41;101537.91;;;20.57;44.86
43770;BME280;6597;52.218;9.882;2023-05-29T11:13:08;101527.38;;;20.95;45.45
43770;BME280;6597;52.218;9.882;2023-05-29T11:15:36;101524.63;;;21.36;43.57
43770;BME280;6597;52.218;9.882;2023-05-29T11:18:07;101519.44;;;21.72;43.48
43770;BME280;6597;52.218;9.882;2023-05-29T11:20:43;101520.28;;;21.98;42.69
43770;BME280;6597;52.218;9.882;2023-05-29T11:23:15;101511.75;;;22.19;40.70
43770;BME280;6597;52.218;9.882;2023-05-29T11:25:45;101510.25;;;22.15;40.70
43770;BME280;6597;52.218;9.882;2023-05-29T11:28:12;101519.44;;;22.11;40.91
43770;BME280;6597;52.218;9.882;2023-05-29T11:30:46;101516.00;;;22.21;40.41
43770;BME280;6597;52.218;9.882;2023-05-29T11:33:20;101518.75;;;22.45;40.88
43770;BME280;6597;52.218;9.882;2023-05-29T11:35:56;101528.00;;;22.16;40.61
43770;BME280;6597;52.218;9.882;2023-05-29T11:38:23;101518.06;;;22.05;40.64
43770;BME280;6597;52.218;9.882;2023-05-29T11:40:50;101513.56;;;22.05;41.08
43770;BME280;6597;52.218;9.882;2023-05-29T11:43:18;101517.94;;;21.81;39.98
43770;BME280;6597;52.218;9.882;2023-05-29T11:45:45;101505.09;;;21.73;41.48
43770;BME280;6597;52.218;9.882;2023-05-29T11:48:11;101515.03;;;21.97;40.79
43770;BME280;6597;52.218;9.882;2023-05-29T11:50:39;101521.72;;;22.41;40.31
43770;BME280;6597;52.218;9.882;2023-05-29T11:53:07;101525.13;;;22.55;39.64
43770;BME280;6597;52.218;9.882;2023-05-29T11:55:33;101516.91;;;22.70;39.27
43770;BME280;6597;52.218;9.882;2023-05-29T11:58:01;101517.78;;;22.83;40.44
43770;BME280;6597;52.218;9.882;2023-05-29T12:00:30;101518.09;;;22.78;39.68
43770;BME280;6597;52.218;9.882;2023-05-29T12:02:59;101504.50;;;22.81;40.00
43770;BME280;6597;52.218;9.882;2023-05-29T12:05:29;101496.28;;;22.95;40.08
43770;BME280;6597;52.218;9.882;2023-05-29T12:07:57;101492.84;;;23.17;39.65
43770;BME280;6597;52.218;9.882;2023-05-29T12:10:26;101499.97;;;23.52;38.03
43770;BME280;6597;52.218;9.882;2023-05-29T12:12:54;101496.13;;;23.67;38.16
43770;BME280;6597;52.218;9.882;2023-05-29T12:15:22;101501.25;;;23.70;37.84
43770;BME280;6597;52.218;9.882;2023-05-29T12:17:49;101497.13;;;23.77;38.51
43770;BME280;6597;52.218;9.882;2023-05-29T12:20:17;101498.09;;;23.87;36.97
43770;BME280;6597;52.218;9.882;2023-05-29T12:22:45;101496.88;;;23.34;37.50
43770;BME280;6597;52.218;9.882;2023-05-29T12:25:14;101496.34;;;22.70;38.50
43770;BME280;6597;52.218;9.882;2023-05-29T12:27:42;101501.03;;;22.55;39.45
43770;BME280;6597;52.218;9.882;2023-05-29T12:30:12;101498.56;;;22.89;39.96
43770;BME280;6597;52.218;9.882;2023-05-29T12:32:42;101490.81;;;22.97;38.43
43770;BME280;6597;52.218;9.882;2023-05-29T12:35:13;101491.53;;;23.34;38.50
43770;BME280;6597;52.218;9.882;2023-05-29T12:37:44;101491.91;;;23.41;37.49
43770;BME280;6597;52.218;9.882;2023-05-29T12:40:18;101491.69;;;23.44;37.77
43770;BME280;6597;52.218;9.882;2023-05-29T12:42:46;101488.50;;;23.39;37.67
43770;BME280;6597;52.218;9.882;2023-05-29T12:45:13;101477.50;;;23.31;37.18
43770;BME280;6597;52.218;9.882;2023-05-29T12:47:51;101490.19;;;23.40;37.97
43770;BME280;6597;52.218;9.882;2023-05-29T12:50:25;101488.88;;;23.45;37.86
43770;BME280;6597;52.218;9.882;2023-05-29T12:52:54;101489.78;;;23.68;37.55
43770;BME280;6597;52.218;9.882;2023-05-29T12:55:22;101490.63;;;23.69;37.87
43770;BME280;6597;52.218;9.882;2023-05-29T12:57:49;101488.00;;;23.80;37.82
43770;BME280;6597;52.218;9.882;2023-05-29T13:00:16;101493.19;;;23.70;37.26
43770;BME280;6597;52.218;9.882;2023-05-29T13:02:44;101484.69;;;23.87;36.45
43770;BME280;6597;52.218;9.882;2023-05-29T13:05:10;101489.06;;;24.00;37.03
43770;BME280;6597;52.218;9.882;2023-05-29T13:07:37;101488.69;;;24.04;36.68